CheckWX is a tool to help pilots better visualize weather data.  It is not intended as a substitute for an official pre-flight weather briefing.

07:01:13 UTC

RJCC TAF
New Chitose Airport
Chitose / Tomakomai, Japan
TAF RJCC 190505Z 1906/2012 17010KT 9999 FEW008 BKN030 TEMPO 1906/1909 FEW008 BKN030 FEW030CB TEMPO 1915/1921 FEW002 BKN006 TEMPO 2009/2012 3000 BR FEW003 BKN005

Jun-19@
06:00 UTC

Jun-19 @ 06:00 UTC

Jun-20@
12:00 UTC

Jun-20 @ 12:00 UTC

TAF RJCC 190505Z 1906/2012 17010KT 9999 FEW008 BKN030
Wind
  • 170° at 10 KTS
Cloud Levels
  • Few at 800' AGL
  • Broken at 3,000' AGL

Jun-19@
06:00 UTC

Jun-19 @ 06:00 UTC

Jun-19@
09:00 UTC

Jun-19 @ 09:00 UTC

TEMPO 1906/1909 FEW008 BKN030 FEW030CB

Temporary

Temporary Changes expected for less than half the time period

Cloud Levels
  • Few at 800' AGL
  • Broken at 3,000' AGL
  • Few at 3,000' AGL

Jun-19@
15:00 UTC

Jun-19 @ 15:00 UTC

Jun-19@
21:00 UTC

Jun-19 @ 21:00 UTC

TEMPO 1915/1921 FEW002 BKN006

Temporary

Temporary Changes expected for less than half the time period

Cloud Levels
  • Few at 200' AGL
  • Broken at 600' AGL

Jun-20@
09:00 UTC

Jun-20 @ 09:00 UTC

Jun-20@
12:00 UTC

Jun-20 @ 12:00 UTC

TEMPO 2009/2012 3000 BR FEW003 BKN005

Temporary

Temporary Changes expected for less than half the time period

Conditions
Mist
Cloud Levels
  • Few at 300' AGL
  • Broken at 500' AGL